sensor_id;sensor_type;location;lat;lon;timestamp;P1;durP1;ratioP1;P2;durP2;ratioP2
81221;SDS011;70691;52.492;13.420;2023-10-08T00:00:46;5.93;;;1.35;;
81221;SDS011;70691;52.492;13.420;2023-10-08T00:03:18;3.75;;;1.25;;
81221;SDS011;70691;52.492;13.420;2023-10-08T00:05:45;3.05;;;1.00;;
81221;SDS011;70691;52.492;13.420;2023-10-08T00:08:12;5.00;;;1.48;;
81221;SDS011;70691;52.492;13.420;2023-10-08T00:10:41;2.70;;;1.20;;
81221;SDS011;70691;52.492;13.420;2023-10-08T00:13:09;4.82;;;1.38;;
81221;SDS011;70691;52.492;13.420;2023-10-08T00:15:36;10.57;;;3.03;;
81221;SDS011;70691;52.492;13.420;2023-10-08T00:18:04;5.47;;;0.98;;
81221;SDS011;70691;52.492;13.420;2023-10-08T00:20:37;5.45;;;1.77;;
81221;SDS011;70691;52.492;13.420;2023-10-08T00:23:13;6.38;;;1.08;;
81221;SDS011;70691;52.492;13.420;2023-10-08T00:25:42;10.35;;;1.63;;
81221;SDS011;70691;52.492;13.420;2023-10-08T00:28:12;6.35;;;1.73;;
81221;SDS011;70691;52.492;13.420;2023-10-08T00:30:41;3.58;;;1.35;;
81221;SDS011;70691;52.492;13.420;2023-10-08T00:33:10;4.88;;;1.80;;
81221;SDS011;70691;52.492;13.420;2023-10-08T00:35:42;3.55;;;1.40;;
81221;SDS011;70691;52.492;13.420;2023-10-08T00:38:10;5.20;;;2.15;;
81221;SDS011;70691;52.492;13.420;2023-10-08T00:40:46;3.28;;;1.15;;
81221;SDS011;70691;52.492;13.420;2023-10-08T00:43:30;6.80;;;2.28;;
81221;SDS011;70691;52.492;13.420;2023-10-08T00:45:59;3.90;;;1.70;;
81221;SDS011;70691;52.492;13.420;2023-10-08T00:48:28;5.82;;;1.10;;
81221;SDS011;70691;52.492;13.420;2023-10-08T00:51:00;4.00;;;1.15;;
81221;SDS011;70691;52.492;13.420;2023-10-08T00:54:00;6.15;;;1.65;;
81221;SDS011;70691;52.492;13.420;2023-10-08T00:59:33;5.05;;;1.17;;
81221;SDS011;70691;52.492;13.420;2023-10-08T01:02:02;5.45;;;1.42;;
81221;SDS011;70691;52.492;13.420;2023-10-08T01:04:39;4.47;;;1.33;;
81221;SDS011;70691;52.492;13.420;2023-10-08T01:07:05;4.03;;;1.30;;
81221;SDS011;70691;52.492;13.420;2023-10-08T01:09:38;4.35;;;1.23;;
81221;SDS011;70691;52.492;13.420;2023-10-08T01:12:11;5.38;;;1.40;;
81221;SDS011;70691;52.492;13.420;2023-10-08T01:15:03;4.72;;;1.58;;
81221;SDS011;70691;52.492;13.420;2023-10-08T01:17:42;8.00;;;1.77;;
81221;SDS011;70691;52.492;13.420;2023-10-08T01:20:14;9.13;;;1.80;;
81221;SDS011;70691;52.492;13.420;2023-10-08T01:23:02;3.53;;;1.50;;
81221;SDS011;70691;52.492;13.420;2023-10-08T01:25:42;6.90;;;1.67;;
81221;SDS011;70691;52.492;13.420;2023-10-08T01:28:09;6.35;;;1.33;;
81221;SDS011;70691;52.492;13.420;2023-10-08T01:30:53;8.40;;;1.80;;
81221;SDS011;70691;52.492;13.420;2023-10-08T01:33:19;8.27;;;1.85;;
81221;SDS011;70691;52.492;13.420;2023-10-08T01:35:46;13.20;;;1.73;;
81221;SDS011;70691;52.492;13.420;2023-10-08T01:38:13;5.85;;;1.83;;
81221;SDS011;70691;52.492;13.420;2023-10-08T01:40:42;8.45;;;2.00;;
81221;SDS011;70691;52.492;13.420;2023-10-08T01:43:08;4.72;;;1.42;;
81221;SDS011;70691;52.492;13.420;2023-10-08T01:45:36;6.50;;;1.63;;
81221;SDS011;70691;52.492;13.420;2023-10-08T01:48:06;5.32;;;1.27;;
81221;SDS011;70691;52.492;13.420;2023-10-08T01:50:34;6.20;;;1.40;;
81221;SDS011;70691;52.492;13.420;2023-10-08T01:53:00;6.72;;;1.20;;
81221;SDS011;70691;52.492;13.420;2023-10-08T01:55:26;6.90;;;1.65;;
81221;SDS011;70691;52.492;13.420;2023-10-08T01:57:51;7.55;;;1.50;;
81221;SDS011;70691;52.492;13.420;2023-10-08T02:00:17;4.38;;;1.50;;
81221;SDS011;70691;52.492;13.420;2023-10-08T02:02:47;7.63;;;1.48;;
81221;SDS011;70691;52.492;13.420;2023-10-08T02:05:15;4.22;;;1.55;;
81221;SDS011;70691;52.492;13.420;2023-10-08T02:07:46;4.43;;;2.17;;
81221;SDS011;70691;52.492;13.420;2023-10-08T02:10:12;9.02;;;1.92;;
81221;SDS011;70691;52.492;13.420;2023-10-08T02:12:39;4.80;;;1.55;;
81221;SDS011;70691;52.492;13.420;2023-10-08T02:15:08;5.30;;;1.77;;
81221;SDS011;70691;52.492;13.420;2023-10-08T02:17:36;5.78;;;1.65;;
81221;SDS011;70691;52.492;13.420;2023-10-08T02:20:03;14.18;;;2.30;;
81221;SDS011;70691;52.492;13.420;2023-10-08T02:22:30;9.57;;;1.73;;
81221;SDS011;70691;52.492;13.420;2023-10-08T02:24:58;6.20;;;2.17;;
81221;SDS011;70691;52.492;13.420;2023-10-08T02:27:29;5.18;;;1.75;;
81221;SDS011;70691;52.492;13.420;2023-10-08T02:29:57;7.65;;;1.77;;
81221;SDS011;70691;52.492;13.420;2023-10-08T02:32:23;4.18;;;2.10;;
81221;SDS011;70691;52.492;13.420;2023-10-08T02:34:49;10.88;;;3.92;;
81221;SDS011;70691;52.492;13.420;2023-10-08T02:37:15;8.90;;;2.00;;
81221;SDS011;70691;52.492;13.420;2023-10-08T02:39:41;7.70;;;2.65;;
81221;SDS011;70691;52.492;13.420;2023-10-08T02:42:07;6.88;;;2.25;;
81221;SDS011;70691;52.492;13.420;2023-10-08T02:44:36;5.28;;;2.20;;
81221;SDS011;70691;52.492;13.420;2023-10-08T02:47:07;6.72;;;2.10;;
81221;SDS011;70691;52.492;13.420;2023-10-08T02:49:34;8.23;;;2.97;;
81221;SDS011;70691;52.492;13.420;2023-10-08T02:52:01;10.90;;;3.28;;
81221;SDS011;70691;52.492;13.420;2023-10-08T02:54:29;10.13;;;2.90;;
81221;SDS011;70691;52.492;13.420;2023-10-08T02:57:01;8.90;;;3.00;;
81221;SDS011;70691;52.492;13.420;2023-10-08T02:59:35;16.17;;;3.20;;
81221;SDS011;70691;52.492;13.420;2023-10-08T03:02:10;11.77;;;4.10;;
81221;SDS011;70691;52.492;13.420;2023-10-08T03:04:44;12.00;;;3.25;;
81221;SDS011;70691;52.492;13.420;2023-10-08T03:07:11;10.88;;;2.83;;
81221;SDS011;70691;52.492;13.420;2023-10-08T03:09:57;15.60;;;3.25;;
81221;SDS011;70691;52.492;13.420;2023-10-08T03:12:42;7.72;;;3.05;;
81221;SDS011;70691;52.492;13.420;2023-10-08T03:15:08;13.65;;;3.58;;
81221;SDS011;70691;52.492;13.420;2023-10-08T03:18:00;9.88;;;3.25;;
81221;SDS011;70691;52.492;13.420;2023-10-08T03:20:35;6.85;;;2.60;;
81221;SDS011;70691;52.492;13.420;2023-10-08T03:23:08;10.38;;;3.00;;
81221;SDS011;70691;52.492;13.420;2023-10-08T03:25:55;12.15;;;2.97;;
81221;SDS011;70691;52.492;13.420;2023-10-08T03:28:37;9.90;;;2.95;;
81221;SDS011;70691;52.492;13.420;2023-10-08T03:31:06;8.13;;;3.00;;
81221;SDS011;70691;52.492;13.420;2023-10-08T03:33:39;11.80;;;2.78;;
81221;SDS011;70691;52.492;13.420;2023-10-08T03:36:05;5.93;;;2.70;;
81221;SDS011;70691;52.492;13.420;2023-10-08T03:38:49;7.97;;;3.08;;
81221;SDS011;70691;52.492;13.420;2023-10-08T03:41:16;13.57;;;3.00;;
81221;SDS011;70691;52.492;13.420;2023-10-08T03:43:43;9.45;;;2.90;;
81221;SDS011;70691;52.492;13.420;2023-10-08T03:46:26;11.68;;;2.53;;
81221;SDS011;70691;52.492;13.420;2023-10-08T03:49:04;7.70;;;2.90;;
81221;SDS011;70691;52.492;13.420;2023-10-08T03:51:41;10.23;;;2.50;;
81221;SDS011;70691;52.492;13.420;2023-10-08T03:54:07;9.15;;;2.53;;
81221;SDS011;70691;52.492;13.420;2023-10-08T03:56:44;6.40;;;2.80;;
81221;SDS011;70691;52.492;13.420;2023-10-08T03:59:11;12.45;;;2.72;;
81221;SDS011;70691;52.492;13.420;2023-10-08T04:01:47;10.77;;;2.70;;
81221;SDS011;70691;52.492;13.420;2023-10-08T04:04:19;9.75;;;2.83;;
81221;SDS011;70691;52.492;13.420;2023-10-08T04:06:49;6.07;;;2.35;;
81221;SDS011;70691;52.492;13.420;2023-10-08T04:09:16;12.07;;;3.15;;
81221;SDS011;70691;52.492;13.420;2023-10-08T04:11:45;11.90;;;3.20;;
81221;SDS011;70691;52.492;13.420;2023-10-08T04:14:23;10.85;;;3.03;;
81221;SDS011;70691;52.492;13.420;2023-10-08T04:16:50;12.00;;;3.90;;
81221;SDS011;70691;52.492;13.420;2023-10-08T04:19:16;6.63;;;2.55;;
81221;SDS011;70691;52.492;13.420;2023-10-08T04:21:43;10.32;;;3.20;;
81221;SDS011;70691;52.492;13.420;2023-10-08T04:24:11;15.10;;;3.47;;
81221;SDS011;70691;52.492;13.420;2023-10-08T04:29:06;8.68;;;2.70;;
81221;SDS011;70691;52.492;13.420;2023-10-08T04:31:35;8.88;;;2.67;;
81221;SDS011;70691;52.492;13.420;2023-10-08T04:34:04;9.70;;;2.60;;
81221;SDS011;70691;52.492;13.420;2023-10-08T04:36:43;8.82;;;2.90;;
81221;SDS011;70691;52.492;13.420;2023-10-08T04:39:11;8.35;;;3.53;;
81221;SDS011;70691;52.492;13.420;2023-10-08T04:41:47;6.78;;;2.40;;
81221;SDS011;70691;52.492;13.420;2023-10-08T04:44:17;10.25;;;2.35;;
81221;SDS011;70691;52.492;13.420;2023-10-08T04:46:43;10.98;;;2.42;;
81221;SDS011;70691;52.492;13.420;2023-10-08T04:49:16;15.70;;;3.20;;
81221;SDS011;70691;52.492;13.420;2023-10-08T04:52:01;9.30;;;3.08;;
81221;SDS011;70691;52.492;13.420;2023-10-08T04:54:39;13.05;;;2.65;;
81221;SDS011;70691;52.492;13.420;2023-10-08T04:57:06;14.88;;;2.90;;
81221;SDS011;70691;52.492;13.420;2023-10-08T04:59:40;11.23;;;2.60;;
81221;SDS011;70691;52.492;13.420;2023-10-08T05:02:07;13.63;;;2.33;;
81221;SDS011;70691;52.492;13.420;2023-10-08T05:04:45;7.75;;;2.75;;
81221;SDS011;70691;52.492;13.420;2023-10-08T05:07:35;15.38;;;2.53;;
81221;SDS011;70691;52.492;13.420;2023-10-08T05:10:10;9.70;;;2.42;;
81221;SDS011;70691;52.492;13.420;2023-10-08T05:12:53;9.98;;;2.95;;
81221;SDS011;70691;52.492;13.420;2023-10-08T05:15:29;11.60;;;2.70;;
81221;SDS011;70691;52.492;13.420;2023-10-08T05:18:01;11.80;;;2.85;;
81221;SDS011;70691;52.492;13.420;2023-10-08T05:20:48;7.93;;;2.35;;
81221;SDS011;70691;52.492;13.420;2023-10-08T05:23:14;14.68;;;2.78;;
81221;SDS011;70691;52.492;13.420;2023-10-08T05:26:01;15.25;;;3.45;;
81221;SDS011;70691;52.492;13.420;2023-10-08T05:28:31;11.82;;;3.60;;
81221;SDS011;70691;52.492;13.420;2023-10-08T05:33:39;9.50;;;2.95;;
81221;SDS011;70691;52.492;13.420;2023-10-08T05:36:23;13.68;;;3.08;;
81221;SDS011;70691;52.492;13.420;2023-10-08T05:39:15;13.27;;;3.17;;
81221;SDS011;70691;52.492;13.420;2023-10-08T05:41:55;7.75;;;2.35;;
81221;SDS011;70691;52.492;13.420;2023-10-08T05:44:40;11.90;;;2.97;;
81221;SDS011;70691;52.492;13.420;2023-10-08T05:47:10;7.57;;;2.97;;
81221;SDS011;70691;52.492;13.420;2023-10-08T05:49:39;8.32;;;2.80;;
81221;SDS011;70691;52.492;13.420;2023-10-08T05:52:19;13.27;;;3.42;;
81221;SDS011;70691;52.492;13.420;2023-10-08T05:54:53;9.13;;;2.47;;
81221;SDS011;70691;52.492;13.420;2023-10-08T05:57:54;10.07;;;2.97;;
81221;SDS011;70691;52.492;13.420;2023-10-08T06:00:42;6.55;;;2.28;;
81221;SDS011;70691;52.492;13.420;2023-10-08T06:03:31;9.00;;;2.72;;
81221;SDS011;70691;52.492;13.420;2023-10-08T06:06:15;7.53;;;2.72;;
81221;SDS011;70691;52.492;13.420;2023-10-08T06:08:41;7.28;;;2.50;;
81221;SDS011;70691;52.492;13.420;2023-10-08T06:11:25;10.70;;;3.05;;
81221;SDS011;70691;52.492;13.420;2023-10-08T06:14:03;8.02;;;2.83;;
81221;SDS011;70691;52.492;13.420;2023-10-08T06:16:38;4.32;;;2.33;;
81221;SDS011;70691;52.492;13.420;2023-10-08T06:19:25;9.60;;;2.65;;
81221;SDS011;70691;52.492;13.420;2023-10-08T06:21:51;10.15;;;2.72;;
81221;SDS011;70691;52.492;13.420;2023-10-08T06:24:18;5.50;;;2.25;;
81221;SDS011;70691;52.492;13.420;2023-10-08T06:26:45;5.10;;;1.63;;
81221;SDS011;70691;52.492;13.420;2023-10-08T06:29:14;11.35;;;2.75;;
81221;SDS011;70691;52.492;13.420;2023-10-08T06:32:01;7.68;;;2.10;;
81221;SDS011;70691;52.492;13.420;2023-10-08T06:34:27;9.82;;;2.53;;
81221;SDS011;70691;52.492;13.420;2023-10-08T06:36:54;8.73;;;2.53;;
81221;SDS011;70691;52.492;13.420;2023-10-08T06:39:22;8.80;;;2.28;;
81221;SDS011;70691;52.492;13.420;2023-10-08T06:41:58;4.40;;;1.85;;
81221;SDS011;70691;52.492;13.420;2023-10-08T06:44:25;3.83;;;1.67;;
81221;SDS011;70691;52.492;13.420;2023-10-08T06:46:52;4.70;;;1.73;;
81221;SDS011;70691;52.492;13.420;2023-10-08T06:49:20;10.27;;;1.90;;
81221;SDS011;70691;52.492;13.420;2023-10-08T06:51:49;6.68;;;2.90;;
81221;SDS011;70691;52.492;13.420;2023-10-08T06:54:15;9.65;;;2.40;;
81221;SDS011;70691;52.492;13.420;2023-10-08T06:56:43;7.75;;;2.00;;
81221;SDS011;70691;52.492;13.420;2023-10-08T06:59:16;5.22;;;1.80;;
81221;SDS011;70691;52.492;13.420;2023-10-08T07:01:43;7.90;;;1.63;;
81221;SDS011;70691;52.492;13.420;2023-10-08T07:04:12;8.38;;;2.28;;
81221;SDS011;70691;52.492;13.420;2023-10-08T07:06:39;6.22;;;2.03;;
81221;SDS011;70691;52.492;13.420;2023-10-08T07:09:05;4.05;;;1.50;;
81221;SDS011;70691;52.492;13.420;2023-10-08T07:11:38;5.90;;;1.77;;
81221;SDS011;70691;52.492;13.420;2023-10-08T07:14:09;4.45;;;1.40;;
81221;SDS011;70691;52.492;13.420;2023-10-08T07:16:36;5.05;;;1.10;;
81221;SDS011;70691;52.492;13.420;2023-10-08T07:19:01;3.83;;;1.42;;
81221;SDS011;70691;52.492;13.420;2023-10-08T07:21:43;6.85;;;1.10;;
81221;SDS011;70691;52.492;13.420;2023-10-08T07:24:10;3.88;;;1.08;;
81221;SDS011;70691;52.492;13.420;2023-10-08T07:26:42;4.07;;;1.65;;
81221;SDS011;70691;52.492;13.420;2023-10-08T07:29:15;3.95;;;1.48;;
81221;SDS011;70691;52.492;13.420;2023-10-08T07:31:42;7.72;;;1.25;;
81221;SDS011;70691;52.492;13.420;2023-10-08T07:34:13;5.85;;;1.50;;
81221;SDS011;70691;52.492;13.420;2023-10-08T07:36:49;3.55;;;1.00;;
81221;SDS011;70691;52.492;13.420;2023-10-08T07:39:16;2.45;;;1.08;;
81221;SDS011;70691;52.492;13.420;2023-10-08T07:41:52;5.45;;;1.20;;
81221;SDS011;70691;52.492;13.420;2023-10-08T07:46:51;3.17;;;1.00;;
81221;SDS011;70691;52.492;13.420;2023-10-08T07:49:21;6.15;;;1.10;;
81221;SDS011;70691;52.492;13.420;2023-10-08T07:51:56;5.60;;;0.98;;
81221;SDS011;70691;52.492;13.420;2023-10-08T07:54:23;5.28;;;1.00;;
81221;SDS011;70691;52.492;13.420;2023-10-08T07:56:52;4.50;;;0.77;;
81221;SDS011;70691;52.492;13.420;2023-10-08T07:59:40;3.30;;;0.80;;
81221;SDS011;70691;52.492;13.420;2023-10-08T08:02:09;1.85;;;1.00;;
81221;SDS011;70691;52.492;13.420;2023-10-08T08:04:42;3.08;;;1.13;;
81221;SDS011;70691;52.492;13.420;2023-10-08T08:07:10;1.83;;;0.88;;
81221;SDS011;70691;52.492;13.420;2023-10-08T08:09:43;4.45;;;1.23;;
81221;SDS011;70691;52.492;13.420;2023-10-08T08:12:16;3.42;;;1.08;;
81221;SDS011;70691;52.492;13.420;2023-10-08T08:14:42;3.08;;;0.88;;
81221;SDS011;70691;52.492;13.420;2023-10-08T08:17:08;2.00;;;0.73;;
81221;SDS011;70691;52.492;13.420;2023-10-08T08:19:40;4.72;;;0.88;;
81221;SDS011;70691;52.492;13.420;2023-10-08T08:22:06;3.30;;;0.85;;
81221;SDS011;70691;52.492;13.420;2023-10-08T08:24:32;1.08;;;0.73;;
81221;SDS011;70691;52.492;13.420;2023-10-08T08:27:00;1.25;;;0.60;;
81221;SDS011;70691;52.492;13.420;2023-10-08T08:29:33;4.72;;;1.13;;
81221;SDS011;70691;52.492;13.420;2023-10-08T08:32:09;2.55;;;0.88;;
81221;SDS011;70691;52.492;13.420;2023-10-08T08:34:40;1.83;;;0.90;;
81221;SDS011;70691;52.492;13.420;2023-10-08T08:37:09;3.60;;;0.88;;
81221;SDS011;70691;52.492;13.420;2023-10-08T08:39:38;3.33;;;0.87;;
81221;SDS011;70691;52.492;13.420;2023-10-08T08:42:06;5.25;;;1.10;;
81221;SDS011;70691;52.492;13.420;2023-10-08T08:44:36;3.92;;;0.88;;
81221;SDS011;70691;52.492;13.420;2023-10-08T08:47:13;2.67;;;0.80;;
81221;SDS011;70691;52.492;13.420;2023-10-08T08:49:43;3.03;;;0.63;;
81221;SDS011;70691;52.492;13.420;2023-10-08T08:52:13;3.55;;;1.15;;
81221;SDS011;70691;52.492;13.420;2023-10-08T08:54:39;1.85;;;0.68;;
81221;SDS011;70691;52.492;13.420;2023-10-08T08:57:07;3.00;;;0.90;;
81221;SDS011;70691;52.492;13.420;2023-10-08T08:59:40;6.75;;;1.20;;
81221;SDS011;70691;52.492;13.420;2023-10-08T09:02:17;3.53;;;1.05;;
81221;SDS011;70691;52.492;13.420;2023-10-08T09:04:43;3.75;;;0.80;;
81221;SDS011;70691;52.492;13.420;2023-10-08T09:07:11;1.35;;;0.50;;
81221;SDS011;70691;52.492;13.420;2023-10-08T09:09:37;6.53;;;0.88;;
81221;SDS011;70691;52.492;13.420;2023-10-08T09:12:04;1.90;;;0.60;;
81221;SDS011;70691;52.492;13.420;2023-10-08T09:14:32;2.08;;;0.50;;
81221;SDS011;70691;52.492;13.420;2023-10-08T09:16:59;1.73;;;0.68;;
81221;SDS011;70691;52.492;13.420;2023-10-08T09:19:29;3.80;;;0.60;;
81221;SDS011;70691;52.492;13.420;2023-10-08T09:22:01;3.67;;;0.45;;
81221;SDS011;70691;52.492;13.420;2023-10-08T09:24:29;2.92;;;0.57;;
81221;SDS011;70691;52.492;13.420;2023-10-08T09:26:59;2.33;;;0.63;;
81221;SDS011;70691;52.492;13.420;2023-10-08T09:29:27;1.23;;;0.40;;
81221;SDS011;70691;52.492;13.420;2023-10-08T09:31:56;3.25;;;0.80;;
81221;SDS011;70691;52.492;13.420;2023-10-08T09:34:26;4.57;;;0.93;;
81221;SDS011;70691;52.492;13.420;2023-10-08T09:36:55;1.08;;;0.50;;
81221;SDS011;70691;52.492;13.420;2023-10-08T09:39:23;3.78;;;0.70;;
81221;SDS011;70691;52.492;13.420;2023-10-08T09:41:50;4.00;;;1.35;;
81221;SDS011;70691;52.492;13.420;2023-10-08T09:44:19;3.47;;;0.70;;
81221;SDS011;70691;52.492;13.420;2023-10-08T09:46:47;2.90;;;0.70;;
81221;SDS011;70691;52.492;13.420;2023-10-08T09:49:29;3.67;;;0.68;;
81221;SDS011;70691;52.492;13.420;2023-10-08T09:52:03;1.45;;;0.50;;
81221;SDS011;70691;52.492;13.420;2023-10-08T09:54:34;0.80;;;0.45;;
81221;SDS011;70691;52.492;13.420;2023-10-08T09:57:20;1.10;;;0.50;;
81221;SDS011;70691;52.492;13.420;2023-10-08T09:59:50;1.55;;;0.47;;
81221;SDS011;70691;52.492;13.420;2023-10-08T10:02:16;0.93;;;0.50;;
81221;SDS011;70691;52.492;13.420;2023-10-08T10:04:43;0.98;;;0.50;;
81221;SDS011;70691;52.492;13.420;2023-10-08T10:07:10;1.42;;;0.50;;
81221;SDS011;70691;52.492;13.420;2023-10-08T10:09:37;1.55;;;0.30;;
81221;SDS011;70691;52.492;13.420;2023-10-08T10:12:07;1.13;;;0.40;;
81221;SDS011;70691;52.492;13.420;2023-10-08T10:14:42;1.40;;;0.50;;
81221;SDS011;70691;52.492;13.420;2023-10-08T10:17:13;1.23;;;0.40;;
81221;SDS011;70691;52.492;13.420;2023-10-08T10:19:57;1.23;;;0.55;;
81221;SDS011;70691;52.492;13.420;2023-10-08T10:22:29;1.50;;;0.43;;
81221;SDS011;70691;52.492;13.420;2023-10-08T10:24:59;1.55;;;0.50;;
81221;SDS011;70691;52.492;13.420;2023-10-08T10:27:41;0.75;;;0.32;;
81221;SDS011;70691;52.492;13.420;2023-10-08T10:30:07;1.65;;;0.82;;
81221;SDS011;70691;52.492;13.420;2023-10-08T10:32:34;1.38;;;0.52;;
81221;SDS011;70691;52.492;13.420;2023-10-08T10:35:00;3.20;;;1.05;;
81221;SDS011;70691;52.492;13.420;2023-10-08T10:37:29;2.55;;;1.08;;
81221;SDS011;70691;52.492;13.420;2023-10-08T10:40:06;1.98;;;0.60;;
81221;SDS011;70691;52.492;13.420;2023-10-08T10:42:37;3.95;;;1.05;;
81221;SDS011;70691;52.492;13.420;2023-10-08T10:45:16;1.73;;;0.60;;
81221;SDS011;70691;52.492;13.420;2023-10-08T10:48:03;2.72;;;0.70;;
81221;SDS011;70691;52.492;13.420;2023-10-08T10:50:48;1.30;;;0.70;;
81221;SDS011;70691;52.492;13.420;2023-10-08T10:53:31;1.23;;;0.40;;
81221;SDS011;70691;52.492;13.420;2023-10-08T10:55:58;1.52;;;0.40;;
81221;SDS011;70691;52.492;13.420;2023-10-08T10:58:34;2.47;;;0.60;;
81221;SDS011;70691;52.492;13.420;2023-10-08T11:03:33;2.45;;;0.60;;
81221;SDS011;70691;52.492;13.420;2023-10-08T11:06:00;1.25;;;0.55;;
81221;SDS011;70691;52.492;13.420;2023-10-08T11:08:31;2.88;;;0.47;;
81221;SDS011;70691;52.492;13.420;2023-10-08T11:11:00;2.27;;;0.63;;
81221;SDS011;70691;52.492;13.420;2023-10-08T11:13:31;1.63;;;0.70;;
81221;SDS011;70691;52.492;13.420;2023-10-08T11:16:05;3.83;;;0.68;;
81221;SDS011;70691;52.492;13.420;2023-10-08T11:18:34;1.20;;;0.38;;
81221;SDS011;70691;52.492;13.420;2023-10-08T11:21:06;1.10;;;0.40;;
81221;SDS011;70691;52.492;13.420;2023-10-08T11:23:55;1.08;;;0.40;;
81221;SDS011;70691;52.492;13.420;2023-10-08T11:26:24;1.20;;;0.47;;
81221;SDS011;70691;52.492;13.420;2023-10-08T11:28:57;1.15;;;0.68;;
81221;SDS011;70691;52.492;13.420;2023-10-08T11:31:26;0.88;;;0.40;;
81221;SDS011;70691;52.492;13.420;2023-10-08T11:33:58;0.98;;;0.30;;
81221;SDS011;70691;52.492;13.420;2023-10-08T11:36:24;1.33;;;0.50;;
81221;SDS011;70691;52.492;13.420;2023-10-08T11:38:59;0.70;;;0.43;;
81221;SDS011;70691;52.492;13.420;2023-10-08T11:41:54;1.83;;;0.70;;
81221;SDS011;70691;52.492;13.420;2023-10-08T11:44:20;1.45;;;0.68;;
81221;SDS011;70691;52.492;13.420;2023-10-08T11:46:48;1.25;;;0.57;;
81221;SDS011;70691;52.492;13.420;2023-10-08T11:49:17;2.35;;;0.52;;
81221;SDS011;70691;52.492;13.420;2023-10-08T11:51:44;3.17;;;0.50;;
81221;SDS011;70691;52.492;13.420;2023-10-08T11:54:13;1.27;;;0.38;;
81221;SDS011;70691;52.492;13.420;2023-10-08T11:56:39;2.30;;;0.60;;
81221;SDS011;70691;52.492;13.420;2023-10-08T11:59:05;0.98;;;0.60;;
81221;SDS011;70691;52.492;13.420;2023-10-08T12:01:37;1.38;;;0.55;;
81221;SDS011;70691;52.492;13.420;2023-10-08T12:04:07;2.65;;;0.70;;
81221;SDS011;70691;52.492;13.420;2023-10-08T12:06:38;1.63;;;0.63;;
81221;SDS011;70691;52.492;13.420;2023-10-08T12:09:11;1.10;;;0.45;;
81221;SDS011;70691;52.492;13.420;2023-10-08T12:11:41;3.90;;;0.80;;
81221;SDS011;70691;52.492;13.420;2023-10-08T12:14:07;0.93;;;0.32;;
81221;SDS011;70691;52.492;13.420;2023-10-08T12:16:33;1.80;;;0.30;;
81221;SDS011;70691;52.492;13.420;2023-10-08T12:19:04;2.17;;;1.27;;
81221;SDS011;70691;52.492;13.420;2023-10-08T12:21:40;2.75;;;0.85;;
81221;SDS011;70691;52.492;13.420;2023-10-08T12:24:06;2.13;;;0.50;;
81221;SDS011;70691;52.492;13.420;2023-10-08T12:26:35;1.08;;;0.38;;
81221;SDS011;70691;52.492;13.420;2023-10-08T12:29:01;2.05;;;0.82;;
81221;SDS011;70691;52.492;13.420;2023-10-08T12:31:27;1.48;;;0.63;;
81221;SDS011;70691;52.492;13.420;2023-10-08T12:33:54;2.17;;;0.63;;
81221;SDS011;70691;52.492;13.420;2023-10-08T12:36:28;5.13;;;0.93;;
81221;SDS011;70691;52.492;13.420;2023-10-08T12:38:58;4.95;;;2.30;;
81221;SDS011;70691;52.492;13.420;2023-10-08T12:41:24;3.08;;;0.70;;
81221;SDS011;70691;52.492;13.420;2023-10-08T12:43:52;3.17;;;0.98;;
81221;SDS011;70691;52.492;13.420;2023-10-08T12:46:18;2.47;;;0.40;;
81221;SDS011;70691;52.492;13.420;2023-10-08T12:48:50;2.50;;;0.50;;
81221;SDS011;70691;52.492;13.420;2023-10-08T12:51:20;1.15;;;0.32;;
81221;SDS011;70691;52.492;13.420;2023-10-08T12:53:53;2.03;;;0.63;;
81221;SDS011;70691;52.492;13.420;2023-10-08T12:56:31;4.32;;;0.70;;
81221;SDS011;70691;52.492;13.420;2023-10-08T12:59:01;11.27;;;4.53;;
81221;SDS011;70691;52.492;13.420;2023-10-08T13:01:35;6.85;;;1.77;;
81221;SDS011;70691;52.492;13.420;2023-10-08T13:04:06;1.85;;;0.80;;
81221;SDS011;70691;52.492;13.420;2023-10-08T13:06:41;2.00;;;0.40;;
81221;SDS011;70691;52.492;13.420;2023-10-08T13:09:10;4.65;;;1.70;;
81221;SDS011;70691;52.492;13.420;2023-10-08T13:11:37;8.13;;;1.63;;
81221;SDS011;70691;52.492;13.420;2023-10-08T13:14:04;2.15;;;0.70;;
81221;SDS011;70691;52.492;13.420;2023-10-08T13:16:30;1.33;;;0.57;;
81221;SDS011;70691;52.492;13.420;2023-10-08T13:18:57;5.00;;;0.70;;
81221;SDS011;70691;52.492;13.420;2023-10-08T13:21:24;1.77;;;0.60;;
81221;SDS011;70691;52.492;13.420;2023-10-08T13:23:51;4.82;;;0.75;;
81221;SDS011;70691;52.492;13.420;2023-10-08T13:26:17;2.30;;;0.52;;
81221;SDS011;70691;52.492;13.420;2023-10-08T13:28:43;1.35;;;0.52;;
81221;SDS011;70691;52.492;13.420;2023-10-08T13:31:10;2.80;;;0.80;;
81221;SDS011;70691;52.492;13.420;2023-10-08T13:33:36;2.50;;;0.60;;
81221;SDS011;70691;52.492;13.420;2023-10-08T13:36:08;1.92;;;0.80;;
81221;SDS011;70691;52.492;13.420;2023-10-08T13:38:34;5.25;;;0.77;;
81221;SDS011;70691;52.492;13.420;2023-10-08T13:41:01;5.75;;;0.95;;
81221;SDS011;70691;52.492;13.420;2023-10-08T13:43:28;1.10;;;0.70;;
81221;SDS011;70691;52.492;13.420;2023-10-08T13:46:05;4.55;;;0.57;;
81221;SDS011;70691;52.492;13.420;2023-10-08T13:48:32;0.88;;;0.43;;
81221;SDS011;70691;52.492;13.420;2023-10-08T13:51:02;0.88;;;0.55;;
81221;SDS011;70691;52.492;13.420;2023-10-08T13:53:30;1.85;;;0.70;;
81221;SDS011;70691;52.492;13.420;2023-10-08T13:56:00;1.30;;;0.60;;
81221;SDS011;70691;52.492;13.420;2023-10-08T13:58:28;2.30;;;0.70;;
81221;SDS011;70691;52.492;13.420;2023-10-08T14:00:55;2.70;;;0.60;;
81221;SDS011;70691;52.492;13.420;2023-10-08T14:03:21;2.72;;;1.05;;
81221;SDS011;70691;52.492;13.420;2023-10-08T14:05:47;3.08;;;0.93;;
81221;SDS011;70691;52.492;13.420;2023-10-08T14:08:19;2.17;;;0.63;;
81221;SDS011;70691;52.492;13.420;2023-10-08T14:10:47;2.15;;;0.90;;
81221;SDS011;70691;52.492;13.420;2023-10-08T14:13:14;1.98;;;0.70;;
81221;SDS011;70691;52.492;13.420;2023-10-08T14:15:45;2.42;;;0.43;;
81221;SDS011;70691;52.492;13.420;2023-10-08T14:18:13;1.90;;;0.50;;
81221;SDS011;70691;52.492;13.420;2023-10-08T14:20:43;4.15;;;0.63;;
81221;SDS011;70691;52.492;13.420;2023-10-08T14:23:12;4.25;;;0.77;;
81221;SDS011;70691;52.492;13.420;2023-10-08T14:25:41;3.22;;;0.70;;
81221;SDS011;70691;52.492;13.420;2023-10-08T14:28:10;1.23;;;0.60;;
81221;SDS011;70691;52.492;13.420;2023-10-08T14:30:46;4.40;;;1.13;;
81221;SDS011;70691;52.492;13.420;2023-10-08T14:33:17;3.17;;;1.10;;
81221;SDS011;70691;52.492;13.420;2023-10-08T14:35:49;1.27;;;0.60;;
81221;SDS011;70691;52.492;13.420;2023-10-08T14:38:34;2.35;;;0.52;;
81221;SDS011;70691;52.492;13.420;2023-10-08T14:41:19;3.67;;;0.88;;
81221;SDS011;70691;52.492;13.420;2023-10-08T14:44:02;1.38;;;0.55;;
81221;SDS011;70691;52.492;13.420;2023-10-08T14:46:29;1.25;;;0.52;;
81221;SDS011;70691;52.492;13.420;2023-10-08T14:48:58;1.80;;;0.68;;
81221;SDS011;70691;52.492;13.420;2023-10-08T14:51:24;1.38;;;0.55;;
81221;SDS011;70691;52.492;13.420;2023-10-08T14:53:51;1.23;;;0.50;;
81221;SDS011;70691;52.492;13.420;2023-10-08T14:56:17;1.73;;;0.77;;
81221;SDS011;70691;52.492;13.420;2023-10-08T14:58:44;2.30;;;0.65;;
81221;SDS011;70691;52.492;13.420;2023-10-08T15:01:10;1.67;;;0.60;;
81221;SDS011;70691;52.492;13.420;2023-10-08T15:03:39;6.43;;;3.10;;
81221;SDS011;70691;52.492;13.420;2023-10-08T15:06:05;1.95;;;0.70;;
81221;SDS011;70691;52.492;13.420;2023-10-08T15:08:32;3.47;;;0.60;;
81221;SDS011;70691;52.492;13.420;2023-10-08T15:10:58;1.60;;;0.85;;